Observations for NORMAN WESTHEIMER, OK (OUN)

KOUN 230835Z AUTO 00000KT 10SM BKN055 13/13 A2993 RMK AO2   
KOUN 230815Z AUTO 00000KT 10SM CLR 14/14 A2991 RMK AO2  
KOUN 230755Z AUTO 00000KT 10SM SCT065 SCT075 SCT110 15/15 A2991 RMK AO2 
KOUN 230735Z AUTO 00000KT 7SM BKN065 OVC075 15/15 A2993 RMK AO2 
KOUN 230715Z AUTO 00000KT 7SM BKN060 OVC070 15/15 A2992 RMK AO2 
KOUN 230655Z AUTO 00000KT 7SM BKN075 BKN090 OVC110 15/15 A2993 RMK AO2  
KOUN 230635Z AUTO 00000KT 7SM BKN075 OVC090 15/15 A2993 RMK AO2 
KOUN 230615Z AUTO 00000KT 10SM BKN075 BKN100 OVC120 15/15 A2994 RMK AO2 
KOUN 230555Z AUTO 00000KT 7SM BKN075 BKN090 OVC110 15/15 A2995 RMK AO2  
KOUN 230535Z AUTO 00000KT 10SM SCT075 OVC090 15/15 A2996 RMK AO2 LTG DSNT SE
KOUN 230520Z AUTO 00000KT 10SM OVC090 15/15 A2996 RMK AO2 LTG DSNT SE AND S 
KOUN 230455Z AUTO 00000KT 10SM BKN090 14/14 A2996 RMK AO2 LTG DSNT SE AND S 
KOUN 230435Z AUTO 00000KT 10SM SCT120 14/14 A2996 RMK AO2   
KOUN 230415Z AUTO 00000KT 10SM SCT120 14/14 A2996 RMK AO2   
KOUN 230355Z AUTO 03004KT 10SM SCT110 14/14 A2995 RMK AO2   
KOUN 230335Z AUTO 01003KT 10SM -RA SCT060 BKN110 15/15 A2996 RMK AO2 LTG DSNT SE
KOUN 230315Z AUTO 35004KT 10SM SCT110 15/15 A2997 RMK AO2   
KOUN 230255Z AUTO 00000KT 10SM VCTS SCT060 SCT090 15/15 A2997 RMK AO2 LTG DSNT SE THRU SW   
KOUN 230235Z AUTO 36006KT 10SM SCT060 SCT090 15/15 A2998 RMK AO2 LTG DSNT SE THRU NW
KOUN 230215Z AUTO 36004KT 10SM VCTS SCT100 15/15 A2997 RMK AO2 LTG DSNT S   
KOUN 230155Z AUTO 06008KT 10SM -VCTSDZ OVC100 15/15 A2994 RMK AO2 P0002 LTG DSNT SW 
KOUN 230135Z AUTO 01003KT 10SM VCTS SCT036 SCT065 OVC100 16/16 A2999 RMK AO2 P0002 LTG DSNT SW THRU N   
KOUN 230120Z AUTO 02006KT 10SM VCTSRA SCT036 BKN060 OVC090 16/16 A2998 RMK AO2 P0001 LTG DSNT ALQS  
KOUN 230055Z AUTO 01005KT 10SM -VCTSRA SCT070 BKN075 OVC090 16/16 A2998 RMK AO2 LTG DSNT S THRU NW  
KOUN 230035Z AUTO 36006KT 10SM -RA OVC090 17/16 A2998 RMK AO2 LTG DSNT W AND NW 
KOUN 230015Z AUTO 01004KT 10SM OVC090 17/16 A2997 RMK AO2 LTG DSNT W AND NW 
KOUN 222355Z AUTO 00000KT 10SM SCT030 BKN090 OVC120 18/16 A2997 RMK AO2 P0001   
KOUN 222335Z AUTO 00000KT 10SM RA SCT029 SCT041 OVC090 18/16 A2997 RMK AO2  
KOUN 222315Z AUTO 00000KT 10SM VCTS OVC090 20/13 A2998 RMK AO2 LTG DSNT N   
KOUN 222255Z AUTO 09004KT 10SM OVC100 20/14 A2997 RMK AO2 LTG DSNT N
KOUN 222235Z AUTO 06005KT 10SM OVC100 20/14 A2996 RMK AO2 LTG DSNT NW   
KOUN 222215Z AUTO 11004KT 10SM VCTS OVC100 20/13 A2997 RMK AO2 LTG DSNT N AND NW
KOUN 222155Z AUTO 14003KT 10SM OVC100 20/13 A2998 RMK AO2 LTG DSNT N AND NW 
KOUN 222135Z AUTO 09004KT 10SM OVC100 20/13 A2999 RMK AO2 LTG DSNT NW   
KOUN 222115Z AUTO 00000KT 10SM SCT075 OVC100 20/13 A3000 RMK AO2 LTG DSNT NW
KOUN 222055Z AUTO 34003KT 10SM SCT075 BKN110 20/13 A3001 RMK AO2 LTG DSNT NW
KOUN 222040Z AUTO 32003KT 10SM SCT060 OVC100 19/13 A3002 RMK AO2
KOUN 222015Z AUTO 31007KT 10SM BKN065 OVC100 19/13 A3004 RMK AO2
KOUN 221955Z AUTO 32009KT 10SM SCT065 SCT075 OVC100 20/15 A3004 RMK AO2 LTG DSNT NW 
KOUN 221935Z AUTO 27005KT 10SM SCT065 OVC110 20/13 A3004 RMK AO2 LTG DSNT NW
KOUN 221915Z AUTO 25004KT 10SM SCT075 OVC110 20/13 A3004 RMK AO2
KOUN 221855Z AUTO 16005KT 10SM OVC100 19/13 A3002 RMK AO2   
KOUN 221835Z AUTO 16011G14KT 10SM OVC110 19/14 A3002 RMK AO2
KOUN 221815Z AUTO 10006KT 067V137 10SM SCT021 SCT075 OVC100 18/13 A3003 RMK AO2 
KOUN 221755Z AUTO 15004KT 10SM -RA SCT019 BKN031 OVC110 18/13 A3005 RMK AO2 P0002   
KOUN 221735Z AUTO 16008KT 10SM RA SCT033 SCT050 OVC100 19/12 A3006 RMK AO2  
KOUN 221720Z AUTO 24008KT 10SM OVC100 20/11 A3009 RMK AO2   
KOUN 221655Z AUTO 21007KT 10SM BKN110 21/11 A3009 RMK AO2   
KOUN 221640Z AUTO 25007KT 10SM SCT120 21/11 A3009 RMK AO2   
KOUN 221615Z AUTO 25005KT 10SM CLR 21/12 A3010 RMK AO2  
KOUN 221555Z AUTO 22007KT 10SM CLR 21/12 A3012 RMK AO2  
KOUN 221535Z AUTO 24007KT 10SM CLR 20/11 A3012 RMK AO2  
KOUN 221515Z AUTO 18005KT 10SM CLR 20/11 A3013 RMK AO2  
KOUN 221455Z AUTO 20005KT 10SM CLR 20/11 A3014 RMK AO2  
KOUN 221435Z AUTO 20007KT 10SM CLR 19/11 A3014 RMK AO2  
KOUN 221415Z AUTO 18005KT 10SM CLR 19/11 A3013 RMK AO2  
KOUN 221355Z AUTO 14004KT 10SM CLR 18/10 A3013 RMK AO2  
KOUN 221335Z AUTO 12003KT 10SM CLR 17/10 A3013 RMK AO2  
KOUN 221315Z AUTO 12003KT 10SM CLR 16/11 A3011 RMK AO2  
KOUN 221255Z AUTO 14003KT 10SM CLR 16/11 A3011 RMK AO2  
KOUN 221240Z AUTO 12003KT 10SM CLR 14/11 A3010 RMK AO2 LTG DSNT NW  
KOUN 221215Z AUTO 00000KT 10SM CLR 11/11 A3011 RMK AO2  
KOUN 221155Z AUTO 00000KT 10SM CLR 10/10 A3011 RMK AO2  
KOUN 221135Z AUTO 00000KT 10SM CLR 11/10 A3011 RMK AO2  
KOUN 221115Z AUTO 00000KT 10SM CLR 12/12 A3011 RMK AO2  
KOUN 221055Z AUTO 00000KT 10SM CLR 11/11 A3012 RMK AO2  
KOUN 221035Z AUTO 00000KT 10SM CLR 12/11 A3012 RMK AO2  
KOUN 221020Z AUTO 00000KT 10SM CLR 13/11 A3012 RMK AO2  
KOUN 220955Z AUTO 00000KT 10SM CLR 12/12 A3013 RMK AO2  
KOUN 220935Z AUTO 00000KT 10SM CLR 12/11 A3013 RMK AO2  
KOUN 220915Z AUTO 00000KT 10SM CLR 11/11 A3013 RMK AO2  
KOUN 220855Z AUTO 00000KT 10SM CLR 12/11 A3014 RMK AO2  
KOUN 220835Z AUTO 00000KT 10SM CLR 13/11 A3014 RMK AO2  
KOUN 220815Z AUTO 00000KT 10SM CLR 13/11 A3016 RMK AO2  
KOUN 220755Z AUTO 31004KT 10SM CLR 13/11 A3017 RMK AO2